Time;durP1;ratioP1;P1;durP2;ratioP2;P2;SDS_P1;SDS_P2;PMS_P1;PMS_P2;Temp;Humidity;BMP_temperature;BMP_pressure;BME280_temperature;BME280_humidity;BME280_pressure;Samples;Min_cycle;Max_cycle;Signal;HPM_P1;HPM_P2
2023/11/16 00:01:37;;;;;;;5.80;2.80;;;;;;;15.97;92.06;99678.14;105649;1262;67747;-82
2023/11/16 00:04:06;;;;;;;6.60;3.00;;;;;;;16.05;91.74;99676.74;105497;1269;72989;-84
2023/11/16 00:06:34;;;;;;;4.60;2.90;;;;;;;16.12;91.26;99678.96;105557;1265;61338;-85
2023/11/16 00:09:02;;;;;;;5.10;2.90;;;;;;;16.16;91.29;99679.27;105573;1267;61143;-83
2023/11/16 00:11:30;;;;;;;7.20;3.20;;;;;;;16.04;91.99;99679.45;105694;1267;74614;-85
2023/11/16 00:13:57;;;;;;;8.40;3.40;;;;;;;15.90;93.28;99677.11;105620;1262;68408;-83
2023/11/16 00:16:28;;;;;;;8.30;3.60;;;;;;;15.63;95.71;99671.52;105500;1265;71994;-83
2023/11/16 00:18:57;;;;;;;4.20;3.00;;;;;;;15.61;96.29;99669.59;105700;1262;61264;-82
2023/11/16 00:21:26;;;;;;;6.10;3.10;;;;;;;15.63;96.34;99668.06;105575;1263;61251;-84
2023/11/16 00:23:54;;;;;;;7.00;3.60;;;;;;;15.72;95.90;99667.71;105609;1262;73379;-82
2023/11/16 00:26:21;;;;;;;6.40;3.30;;;;;;;15.75;95.90;99670.63;105635;1267;67212;-84
2023/11/16 00:28:54;;;;;;;4.90;2.80;;;;;;;15.84;95.44;99671.57;105607;1262;72925;-84
2023/11/16 00:31:23;;;;;;;5.20;3.40;;;;;;;15.88;95.06;99671.19;105582;1265;61328;-82
2023/11/16 00:33:51;;;;;;;6.70;3.40;;;;;;;15.92;94.71;99672.37;105758;1266;61253;-82
2023/11/16 00:46:38;;;;;;;4.90;3.50;;;;;;;15.99;93.73;99671.28;105692;1262;71535;-83
2023/11/16 00:49:07;;;;;;;4.80;3.00;;;;;;;15.94;94.02;99669.14;105640;1264;61354;-81
2023/11/16 00:51:35;;;;;;;6.50;4.30;;;;;;;15.91;93.91;99665.73;105575;1267;61162;-84
2023/11/16 00:54:03;;;;;;;5.70;3.80;;;;;;;15.90;94.08;99670.89;105662;1262;74744;-81
2023/11/16 00:56:31;;;;;;;7.50;3.70;;;;;;;15.85;94.27;99669.91;105590;1262;68356;-85
2023/11/16 00:58:58;;;;;;;5.20;3.10;;;;;;;15.79;94.56;99669.42;105602;1262;72703;-82
2023/11/16 01:01:27;;;;;;;6.70;3.00;;;;;;;15.74;94.61;99666.70;105844;1262;61290;-85
2023/11/16 13:49:17;;;;;;;2.90;1.70;;;;;;;12.88;55.91;100113.08;105908;1263;68479;-91
2023/11/16 13:51:57;;;;;;;2.80;2.00;;;;;;;12.95;56.11;100115.73;105972;1260;75248;-90
2023/11/16 13:54:44;;;;;;;3.30;1.50;;;;;;;12.86;56.61;100116.55;105882;1261;61293;-90
2023/11/16 13:57:24;;;;;;;4.10;1.30;;;;;;;12.84;56.62;100117.79;105973;1264;61271;-88
2023/11/16 14:00:06;;;;;;;1.50;1.10;;;;;;;12.93;56.07;100119.67;105922;1264;74361;-88
2023/11/16 14:02:46;;;;;;;2.50;1.20;;;;;;;13.04;55.74;100121.43;105889;1265;70860;-88
2023/11/16 14:05:26;;;;;;;1.30;1.20;;;;;;;12.98;55.46;100121.71;105965;1261;74431;-89
2023/11/16 14:08:06;;;;;;;1.60;1.10;;;;;;;12.88;55.80;100123.70;105922;1265;62080;-90
2023/11/16 14:10:46;;;;;;;2.30;1.00;;;;;;;12.90;55.77;100122.45;105703;1264;62184;-89
2023/11/16 14:13:26;;;;;;;3.40;1.10;;;;;;;12.88;55.65;100127.48;105915;1263;75174;-88
2023/11/16 14:16:06;;;;;;;1.90;1.10;;;;;;;12.86;55.76;100130.98;105888;1265;69882;-88
2023/11/16 14:18:46;;;;;;;1.30;1.10;;;;;;;12.84;55.72;100135.67;105841;1261;73970;-89
2023/11/16 14:21:26;;;;;;;3.40;1.10;;;;;;;12.74;55.98;100138.77;105809;1259;62273;-88
2023/11/16 14:24:06;;;;;;;2.50;1.20;;;;;;;12.62;56.53;100139.02;105860;1264;61933;-89
2023/11/16 14:26:51;;;;;;;2.00;1.10;;;;;;;12.53;56.91;100136.02;105824;1265;77071;-89
2023/11/16 14:29:31;;;;;;;1.10;1.00;;;;;;;12.50;57.15;100135.02;106041;1259;69716;-87
2023/11/16 14:32:12;;;;;;;1.00;1.00;;;;;;;12.50;57.45;100134.90;106126;1266;73687;-88
2023/11/16 14:34:52;;;;;;;0.80;0.70;;;;;;;12.66;56.98;100136.50;106030;1261;62010;-88
2023/11/16 14:37:34;;;;;;;4.30;2.20;;;;;;;12.61;57.09;100130.48;105857;1260;62406;-89
2023/11/16 14:40:15;;;;;;;4.10;2.60;;;;;;;12.53;57.19;100131.41;105759;1260;76184;-89
2023/11/16 14:42:55;;;;;;;3.50;3.20;;;;;;;12.50;57.37;100139.33;105932;1260;68405;-89
2023/11/16 14:45:36;;;;;;;2.90;2.40;;;;;;;12.56;57.41;100141.40;105994;1265;72662;-88
2023/11/16 14:48:16;;;;;;;1.80;1.40;;;;;;;14.38;52.50;100141.50;105952;1266;61385;-88
2023/11/16 14:50:56;;;;;;;3.10;2.10;;;;;;;15.23;49.23;100141.43;105773;1266;61205;-88
2023/11/16 14:53:36;;;;;;;2.40;2.00;;;;;;;16.08;46.80;100139.69;105830;1264;76262;-89
2023/11/16 14:56:20;;;;;;;1.60;1.30;;;;;;;14.55;48.97;100144.77;105858;1265;68735;-89
2023/11/16 14:58:59;;;;;;;2.50;1.50;;;;;;;13.89;50.82;100150.34;105840;1266;75329;-88
2023/11/16 15:01:40;;;;;;;1.90;1.60;;;;;;;13.59;51.59;100153.51;105983;1265;62960;-87
2023/11/16 15:04:20;;;;;;;1.80;1.20;;;;;;;13.46;52.31;100158.89;105924;1266;61433;-89
2023/11/16 15:07:01;;;;;;;1.60;1.40;;;;;;;13.49;52.25;100160.52;105949;1261;77353;-89
2023/11/16 15:09:42;;;;;;;2.10;1.20;;;;;;;13.45;52.59;100167.37;106051;1265;70359;-88
2023/11/16 15:12:22;;;;;;;1.20;1.00;;;;;;;13.22;53.47;100170.42;105952;1261;74978;-87
2023/11/16 15:15:03;;;;;;;4.30;1.60;;;;;;;13.11;54.19;100170.40;106076;1260;61830;-90
2023/11/16 15:17:43;;;;;;;3.60;1.10;;;;;;;12.86;55.03;100175.23;106732;1265;61335;-92
2023/11/16 15:20:23;;;;;;;1.70;1.30;;;;;;;12.36;57.39;100176.55;105895;1266;77008;-88
2023/11/16 15:23:08;;;;;;;3.10;1.40;;;;;;;12.27;58.59;100177.90;105732;1268;68538;-89
2023/11/16 15:25:48;;;;;;;3.00;1.50;;;;;;;12.37;58.32;100182.30;105641;1269;75079;-88
2023/11/16 15:28:28;;;;;;;8.00;4.00;;;;;;;12.43;58.10;100181.66;105983;1264;61392;-90
2023/11/16 15:31:08;;;;;;;1.90;1.50;;;;;;;12.48;58.05;100186.95;105854;1260;61265;-88
2023/11/16 15:33:48;;;;;;;1.60;1.30;;;;;;;12.70;56.81;100189.16;105823;1260;77271;-89
2023/11/16 15:36:29;;;;;;;0.90;0.90;;;;;;;12.84;56.11;100192.73;105836;1263;71283;-89
2023/11/16 15:39:15;;;;;;;1.80;1.40;;;;;;;13.10;55.06;100195.27;105826;1267;74853;-89
2023/11/16 15:41:55;;;;;;;1.50;1.10;;;;;;;13.34;54.05;100196.88;105840;1266;61356;-89
2023/11/16 15:44:35;;;;;;;1.30;1.00;;;;;;;13.18;54.12;100203.96;105938;1260;61728;-88
2023/11/16 15:47:09;;;;;;;1.80;1.10;;;;;;;13.16;53.97;100206.19;106004;1265;75078;-89
2023/11/16 15:49:49;;;;;;;1.10;1.00;;;;;;;12.62;55.36;100208.77;106227;1261;71462;-88
2023/11/16 15:52:29;;;;;;;1.30;1.10;;;;;;;12.74;55.69;100213.11;107323;1264;74118;-89
2023/11/16 15:55:04;;;;;;;2.40;1.00;;;;;;;12.77;55.28;100214.23;106180;1263;61841;-90
2023/11/16 15:57:42;;;;;;;1.20;1.00;;;;;;;12.65;55.67;100215.50;106005;1263;62411;-88
2023/11/16 16:00:23;;;;;;;0.50;0.50;;;;;;;13.00;54.85;100220.75;106029;1261;74820;-90
2023/11/16 16:03:06;;;;;;;1.30;0.90;;;;;;;12.82;55.24;100217.52;105994;1264;69686;-89
2023/11/16 16:05:41;;;;;;;1.90;1.30;;;;;;;12.90;55.17;100217.95;105958;1260;74268;-89
2023/11/16 16:08:15;;;;;;;1.80;1.20;;;;;;;13.10;54.43;100218.31;106024;1260;61301;-88
2023/11/16 16:10:56;;;;;;;0.80;0.80;;;;;;;12.66;55.76;100225.41;106093;1264;61392;-89
2023/11/16 16:13:37;;;;;;;1.40;1.20;;;;;;;13.08;54.68;100223.79;106027;1261;75996;-89
2023/11/16 16:16:10;;;;;;;2.00;1.40;;;;;;;12.72;55.48;100229.87;105736;1260;69685;-90
2023/11/16 16:18:44;;;;;;;2.50;1.90;;;;;;;12.83;55.69;100230.20;105942;1263;75007;-91
2023/11/16 16:21:25;;;;;;;3.80;1.80;;;;;;;12.72;55.97;100231.41;105887;1261;61301;-89
2023/11/16 16:24:09;;;;;;;2.80;2.00;;;;;;;12.89;55.61;100233.92;106171;1260;62010;-88
2023/11/16 16:26:43;;;;;;;3.60;2.30;;;;;;;12.81;55.77;100237.58;105881;1264;74887;-89
2023/11/16 16:29:18;;;;;;;2.70;2.00;;;;;;;12.73;56.03;100237.98;105950;1261;70190;-91
2023/11/16 16:32:03;;;;;;;3.40;2.40;;;;;;;12.81;56.08;100241.84;105922;1263;72826;-89
2023/11/16 16:34:44;;;;;;;3.70;1.90;;;;;;;12.85;55.80;100241.30;105895;1261;61285;-88
2023/11/16 16:37:24;;;;;;;1.60;1.50;;;;;;;12.96;55.55;100238.05;106165;1259;61257;-90
2023/11/16 16:39:52;;;;;;;3.30;2.50;;;;;;;13.05;55.18;100234.86;105885;1259;74515;-90
2023/11/16 16:42:33;;;;;;;1.60;1.50;;;;;;;13.26;54.53;100233.19;105983;1262;69555;-90
2023/11/16 16:45:14;;;;;;;2.10;1.80;;;;;;;13.03;55.01;100234.61;106071;1266;74689;-90
2023/11/16 16:47:49;;;;;;;2.30;2.00;;;;;;;12.93;55.41;100235.08;105935;1261;61368;-89
2023/11/16 16:50:33;;;;;;;2.40;1.90;;;;;;;12.99;55.35;100234.67;106010;1260;61695;-90
2023/11/16 16:53:13;;;;;;;2.40;1.80;;;;;;;13.08;55.11;100236.83;106271;1261;73426;-90
2023/11/16 16:55:53;;;;;;;1.80;1.60;;;;;;;13.04;55.18;100235.11;106156;1265;72707;-90
2023/11/16 16:58:33;;;;;;;4.70;1.80;;;;;;;13.08;55.11;100236.08;106345;1261;75189;-90
2023/11/16 17:01:03;;;;;;;3.20;1.80;;;;;;;13.17;54.91;100233.45;106723;1260;62049;-89
2023/11/16 17:03:44;;;;;;;2.80;2.20;;;;;;;13.11;55.14;100235.96;106095;1260;62515;-90
2023/11/16 17:06:24;;;;;;;2.70;2.40;;;;;;;13.17;54.95;100237.33;106041;1261;75621;-89
2023/11/16 17:09:05;;;;;;;2.90;2.00;;;;;;;13.16;54.95;100238.35;106131;1266;70050;-89
2023/11/16 17:11:32;;;;;;;2.50;2.00;;;;;;;13.14;54.95;100241.62;105995;1261;73661;-89
2023/11/16 17:14:17;;;;;;;4.80;3.00;;;;;;;13.18;54.68;100242.31;105983;1259;61660;-88
2023/11/16 17:16:57;;;;;;;3.10;2.10;;;;;;;13.22;54.68;100245.86;106131;1264;61252;-90
2023/11/16 17:19:38;;;;;;;3.50;2.40;;;;;;;13.17;54.84;100246.34;105969;1261;74281;-89
2023/11/16 17:22:07;;;;;;;2.60;2.20;;;;;;;13.12;55.01;100244.45;105883;1266;70313;-89
2023/11/16 17:24:35;;;;;;;2.70;2.50;;;;;;;13.12;55.09;100244.22;106066;1261;74994;-89
2023/11/16 17:27:16;;;;;;;2.90;2.30;;;;;;;12.90;55.86;100248.77;106066;1261;61392;-90
2023/11/16 17:29:46;;;;;;;3.30;2.70;;;;;;;12.71;56.84;100247.60;106096;1260;61228;-91
2023/11/16 17:32:15;;;;;;;2.90;2.50;;;;;;;12.87;56.53;100249.97;105966;1266;74620;-89
2023/11/16 17:34:50;;;;;;;2.90;2.50;;;;;;;12.97;56.17;100250.14;106071;1261;70365;-88
2023/11/16 17:37:32;;;;;;;3.70;2.70;;;;;;;13.06;55.95;100243.08;105963;1266;73732;-88
2023/11/16 17:40:00;;;;;;;3.00;2.50;;;;;;;13.14;55.53;100244.91;106150;1264;62800;-89
2023/11/16 17:42:34;;;;;;;3.00;2.60;;;;;;;13.10;55.58;100245.75;106098;1260;62148;-89
2023/11/16 17:45:21;;;;;;;3.60;2.90;;;;;;;13.16;55.43;100245.41;106064;1257;76759;-91
2023/11/16 17:47:55;;;;;;;5.60;3.60;;;;;;;13.23;55.21;100251.11;105909;1260;71226;-92
2023/11/16 17:50:29;;;;;;;4.60;3.10;;;;;;;13.11;55.40;100244.47;106001;1259;73828;-90
2023/11/16 17:53:04;;;;;;;6.20;3.20;;;;;;;13.07;55.77;100247.77;105882;1261;61225;-89
2023/11/16 17:55:37;;;;;;;4.00;3.10;;;;;;;13.20;55.26;100250.99;105916;1261;62204;-89
2023/11/16 17:58:10;;;;;;;3.20;2.90;;;;;;;13.10;55.54;100252.55;106080;1258;76662;-89
2023/11/16 18:00:42;;;;;;;4.00;3.10;;;;;;;13.14;55.48;100252.98;105925;1264;70967;-89
2023/11/16 18:03:14;;;;;;;3.20;2.70;;;;;;;13.24;55.12;100250.88;105940;1258;73693;-89
2023/11/16 18:05:47;;;;;;;3.40;2.80;;;;;;;13.27;54.98;100253.03;105829;1260;61267;-88
2023/11/16 18:08:21;;;;;;;4.20;2.50;;;;;;;13.23;55.14;100254.45;106159;1258;61345;-89
2023/11/16 18:10:59;;;;;;;2.70;2.20;;;;;;;13.16;55.25;100261.10;106008;1260;76865;-89
2023/11/16 18:13:33;;;;;;;3.10;2.70;;;;;;;13.23;55.05;100263.91;106098;1261;70696;-90
2023/11/16 18:16:06;;;;;;;4.00;2.80;;;;;;;13.20;55.15;100261.55;105990;1260;75021;-89
2023/11/16 18:19:05;;;;;;;5.80;3.60;;;;;;;12.99;55.88;100263.76;105946;1267;61063;-91
2023/11/16 18:21:33;;;;;;;3.70;3.00;;;;;;;12.91;56.44;100261.15;106005;1266;61255;-89
2023/11/16 18:24:01;;;;;;;3.30;2.90;;;;;;;12.98;56.32;100258.68;106049;1263;76545;-89
2023/11/16 18:26:30;;;;;;;4.60;3.30;;;;;;;12.98;56.26;100260.65;106223;1260;69303;-91
2023/11/16 18:28:58;;;;;;;5.10;3.70;;;;;;;13.05;56.06;100259.16;108779;1257;73495;-89
2023/11/16 18:31:33;;;;;;;6.20;3.30;;;;;;;13.07;55.80;100263.52;106077;1261;61906;-90
2023/11/16 18:34:02;;;;;;;4.80;3.30;;;;;;;13.07;55.97;100265.83;106090;1261;61227;-89
2023/11/16 18:36:31;;;;;;;3.80;3.10;;;;;;;13.10;55.97;100266.82;106340;1260;76922;-91
2023/11/16 18:39:09;;;;;;;4.00;3.40;;;;;;;13.09;55.96;100267.42;105962;1260;71104;-89
2023/11/16 18:41:37;;;;;;;6.20;3.70;;;;;;;12.96;56.34;100268.75;106102;1264;72885;-91
2023/11/16 18:44:05;;;;;;;5.50;3.80;;;;;;;12.69;57.03;100272.14;106108;1265;61432;-90
2023/11/16 18:46:39;;;;;;;5.60;3.10;;;;;;;12.36;58.78;100275.46;106155;1264;61182;-89
2023/11/16 18:49:09;;;;;;;3.40;2.70;;;;;;;12.47;58.77;100275.92;106068;1265;76671;-91
2023/11/16 18:51:37;;;;;;;5.50;3.80;;;;;;;12.41;59.19;100278.63;105988;1260;69934;-90
2023/11/16 18:54:09;;;;;;;4.10;3.10;;;;;;;12.70;58.17;100273.21;106128;1262;72407;-90
2023/11/16 18:56:40;;;;;;;6.10;3.20;;;;;;;12.81;57.69;100274.80;106333;1265;61372;-90
2023/11/16 18:59:13;;;;;;;4.50;3.50;;;;;;;12.80;57.47;100273.98;106002;1265;61253;-90
2023/11/16 19:01:48;;;;;;;3.50;3.00;;;;;;;12.78;57.48;100281.38;105956;1261;75152;-89
2023/11/16 19:04:21;;;;;;;5.50;3.00;;;;;;;12.35;59.11;100290.34;106030;1257;69975;-90
2023/11/16 19:06:55;;;;;;;4.00;2.70;;;;;;;12.28;59.76;100289.55;105899;1261;72818;-90
2023/11/16 19:09:25;;;;;;;4.50;2.90;;;;;;;12.57;58.88;100290.23;106039;1260;62072;-90
2023/11/16 19:11:58;;;;;;;4.90;3.00;;;;;;;12.69;58.26;100290.71;106175;1265;61202;-90
2023/11/16 19:14:31;;;;;;;3.70;2.90;;;;;;;12.72;58.01;100294.03;106105;1261;75974;-92
2023/11/16 19:17:03;;;;;;;4.90;3.00;;;;;;;12.70;57.85;100288.58;106761;1263;70528;-90
2023/11/16 19:19:40;;;;;;;4.40;2.80;;;;;;;12.65;57.98;100294.29;105885;1259;75067;-90
2023/11/16 19:22:11;;;;;;;3.10;2.70;;;;;;;12.63;58.35;100297.13;105907;1265;61288;-90
2023/11/16 19:24:45;;;;;;;4.30;3.20;;;;;;;12.67;58.09;100295.70;106034;1265;61388;-89
2023/11/16 19:27:17;;;;;;;3.70;2.30;;;;;;;12.88;57.42;100292.80;105929;1257;77654;-93
2023/11/16 19:29:50;;;;;;;6.20;2.90;;;;;;;12.87;57.29;100299.94;106075;1257;70873;-89
2023/11/16 19:32:25;;;;;;;5.00;3.20;;;;;;;12.78;57.32;100302.77;106127;1259;75357;-91
2023/11/16 19:34:55;;;;;;;4.10;3.00;;;;;;;12.52;58.42;100312.96;106040;1259;62997;-91
2023/11/16 19:37:28;;;;;;;4.30;3.10;;;;;;;12.47;58.92;100313.63;106246;1261;62229;-88
2023/11/16 19:40:01;;;;;;;5.00;3.10;;;;;;;12.64;58.56;100313.50;105880;1259;76467;-89
2023/11/16 19:42:33;;;;;;;4.70;3.00;;;;;;;12.79;57.81;100313.23;106049;1261;70224;-89
2023/11/16 19:45:06;;;;;;;6.20;3.40;;;;;;;12.86;57.49;100315.59;105945;1266;76147;-89
2023/11/16 19:47:39;;;;;;;5.30;3.30;;;;;;;13.00;56.89;100311.91;106022;1260;61320;-90
2023/11/16 19:50:13;;;;;;;;;;;;;;;12.95;57.04;100312.04;106156;1264;61236;-89
2023/11/16 19:52:44;;;;;;;4.60;3.00;;;;;;;12.74;57.66;100316.37;106161;1261;74679;-90
2023/11/16 19:55:16;;;;;;;3.70;3.00;;;;;;;12.65;58.16;100323.30;106105;1259;69978;-90
2023/11/16 19:57:51;;;;;;;;;;;;;;;12.63;58.29;100327.70;106107;1260;73795;-90
2023/11/16 20:00:23;;;;;;;4.30;3.00;;;;;;;12.62;58.44;100327.94;106078;1261;62090;-90
2023/11/16 20:02:55;;;;;;;;;;;;;;;12.70;58.25;100329.48;105856;1260;62284;-90
2023/11/16 20:05:28;;;;;;;4.00;2.90;;;;;;;12.64;58.49;100331.92;106075;1257;75654;-89
2023/11/16 20:08:02;;;;;;;3.90;3.10;;;;;;;12.77;58.27;100334.09;106101;1260;70320;-89
2023/11/16 20:10:30;;;;;;;4.10;3.10;;;;;;;12.96;57.50;100335.99;105970;1260;74956;-89
2023/11/16 20:13:02;;;;;;;5.40;3.40;;;;;;;13.08;57.01;100337.58;106027;1260;63257;-89
2023/11/16 20:15:35;;;;;;;4.90;2.90;;;;;;;12.98;57.41;100339.38;105842;1259;63297;-90
2023/11/16 20:18:13;;;;;;;6.10;3.20;;;;;;;13.09;57.09;100341.00;105896;1261;74717;-90
2023/11/16 20:20:45;;;;;;;4.60;3.50;;;;;;;13.15;57.03;100343.87;105895;1260;70415;-89
2023/11/16 20:23:24;;;;;;;5.60;3.50;;;;;;;13.05;57.32;100350.39;106325;1265;74049;-90
2023/11/16 20:25:58;;;;;;;7.70;3.70;;;;;;;12.90;58.05;100351.62;105848;1264;61394;-91
2023/11/16 20:28:28;;;;;;;7.60;3.00;;;;;;;12.89;58.41;100354.85;105994;1259;61258;-90
2023/11/16 20:30:56;;;;;;;5.20;3.20;;;;;;;12.94;58.34;100359.39;105874;1267;74683;-90
2023/11/16 20:33:31;;;;;;;5.30;3.20;;;;;;;12.83;58.82;100361.91;105926;1261;72786;-91
2023/11/16 20:35:59;;;;;;;7.20;3.90;;;;;;;12.72;59.61;100363.33;106184;1263;74403;-90
2023/11/16 20:38:27;;;;;;;6.40;4.00;;;;;;;12.97;58.78;100360.89;106017;1258;61313;-90
2023/11/16 20:40:55;;;;;;;8.20;4.60;;;;;;;12.94;58.92;100367.58;106091;1261;61284;-90
2023/11/16 20:43:24;;;;;;;6.10;4.10;;;;;;;12.76;59.66;100369.46;106118;1258;77283;-90
2023/11/16 20:45:56;;;;;;;6.30;4.00;;;;;;;12.63;60.63;100372.17;106137;1257;70001;-89
2023/11/16 20:48:29;;;;;;;5.20;3.80;;;;;;;12.55;61.46;100376.27;106067;1264;74257;-90
2023/11/16 20:51:03;;;;;;;8.60;4.00;;;;;;;12.61;61.31;100378.62;106226;1261;61253;-90
2023/11/16 20:53:38;;;;;;;5.10;3.00;;;;;;;12.62;61.37;100382.94;106025;1262;61404;-89
2023/11/16 20:56:12;;;;;;;3.70;2.90;;;;;;;12.41;62.50;100385.61;106107;1260;74649;-89
2023/11/16 20:58:44;;;;;;;3.40;2.30;;;;;;;12.42;62.79;100387.39;105906;1264;193763;-89
2023/11/16 21:01:19;;;;;;;2.90;1.80;;;;;;;12.50;62.41;100390.05;105820;1264;72117;-89
2023/11/16 21:03:48;;;;;;;2.80;2.10;;;;;;;12.49;62.32;100393.52;105910;1265;61318;-89
2023/11/16 21:06:20;;;;;;;3.70;2.10;;;;;;;12.50;62.63;100399.21;105905;1259;61137;-89
2023/11/16 21:08:54;;;;;;;2.00;1.80;;;;;;;12.64;62.04;100402.42;105703;1260;77044;-90
2023/11/16 21:11:27;;;;;;;4.10;3.10;;;;;;;12.61;62.06;100400.11;105997;1259;69382;-91
2023/11/16 21:14:01;;;;;;;3.80;3.00;;;;;;;12.61;62.03;100402.79;106299;1263;71446;-89
2023/11/16 21:16:32;;;;;;;3.70;2.50;;;;;;;12.51;62.39;100403.91;106135;1260;61312;-92
2023/11/16 21:19:05;;;;;;;4.20;2.70;;;;;;;12.42;63.08;100411.08;106123;1257;62450;-89
2023/11/16 21:21:40;;;;;;;3.70;2.50;;;;;;;12.56;62.44;100406.37;106173;1260;73697;-89
2023/11/16 21:24:09;;;;;;;4.10;2.90;;;;;;;12.32;63.52;100407.09;106187;1265;68393;-89
2023/11/16 21:26:44;;;;;;;6.10;3.10;;;;;;;12.29;63.95;100414.08;106277;1259;72437;-90
2023/11/16 21:29:12;;;;;;;2.40;2.00;;;;;;;12.30;64.06;100419.02;105957;1261;61255;-91
2023/11/16 21:31:40;;;;;;;4.70;2.50;;;;;;;12.48;63.31;100424.16;106058;1260;61211;-89
2023/11/16 21:34:08;;;;;;;4.00;2.70;;;;;;;12.43;63.58;100419.19;106060;1259;75134;-91
2023/11/16 21:36:43;;;;;;;3.30;2.80;;;;;;;12.42;63.70;100422.10;106202;1264;67382;-90
2023/11/16 21:39:12;;;;;;;3.70;2.70;;;;;;;12.51;63.21;100423.30;106112;1260;71265;-89
2023/11/16 21:41:42;;;;;;;4.50;2.70;;;;;;;12.63;62.46;100426.58;105996;1259;61361;-90
2023/11/16 21:44:10;;;;;;;5.00;2.90;;;;;;;12.41;63.58;100429.84;106229;1260;61409;-91
2023/11/16 21:46:43;;;;;;;2.80;2.50;;;;;;;12.47;63.40;100432.84;105957;1258;74390;-89
2023/11/16 21:49:12;;;;;;;4.30;2.90;;;;;;;12.52;62.91;100436.17;106042;1259;69638;-90
2023/11/16 21:51:42;;;;;;;3.60;2.90;;;;;;;12.47;63.45;100439.41;105921;1264;71407;-89
2023/11/16 21:54:15;;;;;;;3.50;2.70;;;;;;;12.35;64.17;100438.09;105856;1260;61366;-91
2023/11/16 21:56:52;;;;;;;3.40;2.50;;;;;;;12.23;65.13;100441.23;105924;1259;61194;-89
2023/11/16 21:59:20;;;;;;;3.20;2.70;;;;;;;12.18;65.81;100445.28;105782;1260;74677;-90
2023/11/16 22:02:11;;;;;;;3.50;2.60;;;;;;;12.40;65.32;100450.09;105956;1265;67271;-91
2023/11/16 22:04:39;;;;;;;4.20;2.80;;;;;;;12.45;65.28;100448.05;105805;1264;72670;-89
2023/11/16 22:07:06;;;;;;;4.50;2.90;;;;;;;12.45;65.32;100446.62;106015;1259;61279;-90
2023/11/16 22:09:34;;;;;;;3.80;3.20;;;;;;;12.39;66.04;100442.75;105962;1259;61452;-88
2023/11/16 22:12:03;;;;;;;3.40;3.10;;;;;;;12.27;66.63;100446.45;105941;1262;74586;-89
2023/11/16 22:14:31;;;;;;;3.50;2.70;;;;;;;11.98;69.43;100454.35;105855;1260;67269;-90
2023/11/16 22:16:59;;;;;;;4.70;3.20;;;;;;;12.11;69.61;100453.57;105884;1265;72758;-88
2023/11/16 22:19:31;;;;;;;4.30;3.00;;;;;;;12.12;69.79;100456.73;105772;1260;61321;-89
2023/11/16 22:22:09;;;;;;;6.00;3.40;;;;;;;11.81;72.45;100458.59;105982;1259;61709;-89
2023/11/16 22:24:43;;;;;;;5.00;3.50;;;;;;;11.35;76.77;100459.98;105985;1260;73393;-91
2023/11/16 22:27:10;;;;;;;3.60;2.90;;;;;;;10.99;81.07;100462.83;105900;1259;68718;-92
2023/11/16 22:29:44;;;;;;;4.80;3.10;;;;;;;10.98;82.36;100462.61;105889;1265;71545;-89
2023/11/16 22:32:12;;;;;;;5.40;3.30;;;;;;;11.08;82.29;100457.20;105947;1262;61385;-91
2023/11/16 22:34:40;;;;;;;4.40;3.10;;;;;;;11.15;82.48;100458.20;106001;1259;61310;-87
2023/11/16 22:37:07;;;;;;;6.00;3.50;;;;;;;11.21;82.52;100461.34;105735;1263;74695;-87
2023/11/16 22:39:39;;;;;;;5.00;3.40;;;;;;;10.97;84.34;100468.41;105805;1262;67592;-87
2023/11/16 22:42:13;;;;;;;4.70;3.50;;;;;;;11.00;84.93;100467.25;106069;1257;72795;-88
2023/11/16 22:44:44;;;;;;;6.70;4.30;;;;;;;11.16;84.27;100467.11;105986;1261;61260;-90
2023/11/16 22:47:16;;;;;;;6.30;4.00;;;;;;;11.03;85.24;100473.80;105873;1259;61458;-90
2023/11/16 22:49:47;;;;;;;5.00;3.60;;;;;;;11.01;86.01;100476.00;105847;1259;74664;-90
2023/11/16 22:52:20;;;;;;;8.20;4.40;;;;;;;11.06;85.87;100481.77;105918;1259;68451;-89
2023/11/16 22:54:51;;;;;;;7.00;4.40;;;;;;;11.19;85.40;100487.55;105787;1263;72704;-87
2023/11/16 22:57:24;;;;;;;7.20;4.50;;;;;;;10.98;87.18;100491.34;105736;1259;61384;-87
2023/11/16 22:59:55;;;;;;;7.80;5.00;;;;;;;11.20;85.76;100491.86;105937;1259;61275;-87
2023/11/16 23:02:29;;;;;;;7.20;4.90;;;;;;;11.04;86.90;100491.67;105945;1259;74968;-88
2023/11/16 23:05:07;;;;;;;6.70;4.00;;;;;;;10.97;87.49;100491.88;106476;1260;68446;-87
2023/11/16 23:07:51;;;;;;;6.10;4.60;;;;;;;10.97;87.90;100491.65;105845;1262;72655;-88
2023/11/16 23:10:19;;;;;;;9.10;4.80;;;;;;;10.97;87.74;100496.97;105752;1259;61491;-87
2023/11/16 23:12:53;;;;;;;8.20;4.20;;;;;;;10.86;88.58;100499.75;105906;1259;61293;-88
2023/11/16 23:15:24;;;;;;;7.70;5.20;;;;;;;10.74;89.80;100509.31;105817;1259;74570;-87
2023/11/16 23:17:53;;;;;;;6.80;4.80;;;;;;;10.85;89.62;100512.11;105709;1266;68022;-87
2023/11/16 23:20:27;;;;;;;6.20;4.00;;;;;;;10.86;89.06;100518.55;105874;1260;72761;-88
2023/11/16 23:23:00;;;;;;;8.50;4.70;;;;;;;10.90;89.33;100516.67;105810;1259;61197;-87
2023/11/16 23:25:32;;;;;;;6.20;4.70;;;;;;;11.03;88.21;100518.64;105904;1261;61338;-87
2023/11/16 23:28:07;;;;;;;9.80;5.00;;;;;;;10.99;88.39;100519.60;105786;1265;74702;-88
2023/11/16 23:30:38;;;;;;;7.00;5.40;;;;;;;10.86;89.17;100520.20;105855;1260;68721;-88
2023/11/16 23:33:16;;;;;;;7.00;4.40;;;;;;;10.87;89.55;100522.65;106280;1267;72704;-87
2023/11/16 23:35:44;;;;;;;5.60;3.90;;;;;;;11.01;88.22;100526.80;105920;1259;61354;-88
2023/11/16 23:38:18;;;;;;;6.10;4.20;;;;;;;11.18;87.04;100528.64;106328;1264;61122;-89
2023/11/16 23:40:46;;;;;;;5.40;4.10;;;;;;;11.08;87.47;100537.17;106334;1259;73054;-88
2023/11/16 23:43:17;;;;;;;6.60;4.10;;;;;;;10.99;88.25;100536.45;106526;1260;68495;-87
2023/11/16 23:45:51;;;;;;;8.80;4.40;;;;;;;10.92;88.82;100540.67;105638;1260;72682;-87
2023/11/16 23:48:19;;;;;;;6.10;4.40;;;;;;;10.84;89.30;100541.52;105843;1262;61343;-88
2023/11/16 23:50:52;;;;;;;5.30;4.00;;;;;;;10.82;89.65;100543.39;105912;1261;61197;-87
2023/11/16 23:53:27;;;;;;;5.50;4.20;;;;;;;10.79;90.17;100548.66;106128;1259;74675;-88
2023/11/16 23:56:01;;;;;;;5.60;3.90;;;;;;;10.91;89.38;100551.89;105812;1259;66829;-87
2023/11/16 23:58:29;;;;;;;8.90;4.10;;;;;;;10.95;88.79;100554.33;105879;1263;71395;-87
